Kezdőlap
METAR-TAF:

METAR-TAF

Repülőterek :

Northwest Arkansas Regional Airport

Fayetteville, Arkansas, Amerikai Egyesült Államok

földrajzi szélesség: 36-16-55N, földrajzi hosszúság: 094-18-25W, magasság: 392 m

Jelenlegi meteorológiai megfigyelések

A jelentés 53 perccel ezelõtt készült, 22:53 UTC
Dél-délnyugati szél 6 kt
Hőmérséklet 31°C
Páratartalom 40%
Légköri nyomás 1020 hPa
Látótávolság: 16.1 km
Derült ég

METAR: KXNA 212253Z 20006KT 10SM CLR 31/16 A3013 RMK AO2 SLP187 T03060161

Idő: 18:46 (23:46 UTC)

Előrejelzés

A jelentés 26 perccel ezelõtt készült, 23:20 UTC
Az előrejelzés 22-én 00 óra UTC és 22-én 24 óra UTC között érvényes
Déli szél 6 kt
Látótávolság: 10 km
Szórványos felhőzet 5000 lábon
22-én 1500 órától UTC szerint
Dél-délnyugati szél 12 kt széllökések: 20 kt
Látótávolság: 10 km
Szórványos felhőzet 5000 lábon

TAF: KXNA 212320Z 2200/2224 18006KT P6SM SCT050 FM221500 21012G20KT P6SM SCT050

Meteorológiai megfigyelések és előrejelzések több, mint 4000 repülőtéren (METAR és TAF jelentéseket).

A térképen piros és sárga pontok jelzik az elérhető meteorológiai állomásokat.

Mozgassa az egeret a pont fölött, hogy megjelenjen az állomás neve.

Azután kattintson az időjárási megfigyelések és előrejelzések megtekintéséhez.

A térkép megváltoztatása: kattintson a fekete keresztel jelölt zöld gombra ráközelítéshez, a vonallal jelölt zöld gombra távolításhoz, vagy a zöld nyilakra a szomszédos térképek eléréséhez.


METAR-TAF: